< < Back
Terminal Aerodrome Forecast


Current Version              Previous Versions:   1  2  3  4  5  6  7  8  9  

Terminal Aerodrome Forecast

120
FTUS44 KHUN 230932 AAA
TAFHSV
TAF AMD
KHSV 230932Z 2310/2406 00000KT 6SM BR BKN090
      TEMPO 2310/2312 2SM BR
     FM231500 VRB05KT P6SM VCSH BKN050
      TEMPO 2320/2324 5SM -TSRA BR BKN025CB
     FM240200 00000KT P6SM SCT100=

Latest METAR

467
SAUS80 KWBC 240300 RRF
MTRHSV
METAR KHSV 240353Z 00000KT 10SM FEW110 SCT250 24/22 A3002 RMK AO2 SLP157
T02390217


USA.gov is the U.S. government's official web portal to all federal, state and local government web resources and services.